.
WxDataArchive / Data Records for 2010-09-25
2010-09-24 September 2010 2010-09-26

Data Records for Saturday, 25 September 2010

Time	Temp	Chill	HIndex	Humid	Dewpt	 Wind 	HiWind	WindDir	Rain 	Barom 
-----	----	-----	------	-----	-----	------	------	-------	-----	----- 
00:00	62.4	62.4	62.4	63	49.6	1	5	270	0.00	29.958 
00:05	62.3	62.3	62.3	63	49.5	1	2	270	0.00	29.958 
00:10	62.1	62.1	62.1	63	49.3	1	4	270	0.00	29.958 
00:15	62.0	62.0	62.0	64	49.7	1	5	270	0.00	29.962 
00:20	62.0	62.0	62.0	64	49.7	1	3	270	0.00	29.962 
00:25	61.8	61.8	61.8	64	49.5	1	5	248	0.00	29.962 
00:30	61.8	61.8	61.8	63	49.1	1	3	270	0.00	29.964 
00:35	61.8	61.8	61.8	63	49.1	1	4	270	0.00	29.964 
00:40	61.8	61.8	61.8	63	49.1	1	3	270	0.00	29.964 
00:45	61.6	61.6	61.6	63	48.9	1	7	270	0.00	29.965 
00:50	61.6	61.6	61.6	63	48.9	1	5	248	0.00	29.965 
00:55	61.6	61.6	61.6	64	49.3	1	3	248	0.00	29.965 
01:00	61.6	61.6	61.6	63	48.9	2	7	248	0.00	29.963 
01:05	61.6	61.6	61.6	64	49.3	1	3	292	0.00	29.963 
01:10	61.5	61.5	61.5	64	49.2	2	7	270	0.00	29.963 
01:15	61.5	61.5	61.5	64	49.2	2	4	248	0.00	29.960 
01:20	61.3	61.3	61.3	64	49.0	0	3	248	0.00	29.960 
01:25	61.2	61.2	61.2	64	48.9	1	4	248	0.00	29.960 
01:30	61.2	61.2	61.2	64	48.9	1	4	270	0.00	29.959 
01:35	61.2	61.2	61.2	64	48.9	1	3	270	0.00	29.959 
01:40	61.0	61.0	61.0	64	48.7	2	4	270	0.00	29.959 
01:45	61.0	61.0	61.0	65	49.1	2	4	270	0.00	29.958 
01:50	60.9	60.9	60.9	65	49.1	1	4	270	0.00	29.958 
01:55	60.9	60.9	60.9	65	49.1	1	4	270	0.00	29.958 
02:00	60.7	60.7	60.7	65	48.9	1	4	270	0.00	29.961 
02:05	60.5	60.5	60.5	65	48.7	1	3	270	0.00	29.961 
02:10	60.4	60.4	60.4	66	49.0	0	2	270	0.00	29.961 
02:15	60.1	60.1	60.1	66	48.7	1	4	270	0.00	29.960 
02:20	59.9	59.9	59.9	67	48.9	0	2	270	0.00	29.960 
02:25	59.8	59.8	59.8	67	48.8	0	3	270	0.00	29.960 
02:30	59.6	59.6	59.6	68	49.0	1	3	270	0.00	29.963 
02:35	59.5	59.5	59.5	68	48.9	1	4	270	0.00	29.963 
02:40	59.3	59.3	59.3	69	49.1	1	3	270	0.00	29.963 
02:45	59.2	59.2	59.2	69	49.0	1	3	270	0.00	29.964 
02:50	59.0	59.0	59.0	69	48.8	1	3	270	0.00	29.964 
02:55	58.9	58.9	58.9	70	49.1	0	3	270	0.00	29.964 
03:00	58.7	58.7	58.7	70	48.9	1	3	270	0.00	29.963 
03:05	58.6	58.6	58.6	70	48.8	1	3	270	0.00	29.963 
03:10	58.4	58.4	58.4	71	49.0	0	2	270	0.00	29.963 
03:15	58.3	58.3	58.3	71	48.9	0	2	270	0.00	29.966 
03:20	58.1	58.1	58.1	72	49.1	0	2	270	0.00	29.966 
03:25	58.0	58.0	58.0	72	49.0	0	3	270	0.00	29.966 
03:30	57.8	57.8	57.8	73	49.2	0	1	270	0.00	29.961 
03:35	57.6	57.6	57.6	73	49.0	0	1	270	0.00	29.961 
03:40	57.5	57.5	57.5	73	48.9	0	1	270	0.00	29.961 
03:45	57.3	57.3	57.3	74	49.1	0	3	270	0.00	29.962 
03:50	57.2	57.2	57.2	74	49.0	0	1	270	0.00	29.962 
03:55	57.0	57.0	57.0	74	48.8	0	1	270	0.00	29.962 
04:00	56.9	56.9	56.9	75	49.1	0	1	270	0.00	29.965 
04:05	56.7	56.7	56.7	75	48.9	0	1	270	0.00	29.965 
04:10	56.6	56.6	56.6	75	48.8	0	1	270	0.00	29.965 
04:15	56.6	56.6	56.6	76	49.1	0	1	270	0.00	29.963 
04:20	56.5	56.5	56.5	76	49.0	0	1	270	0.00	29.963 
04:25	56.3	56.3	56.3	76	48.8	0	2	270	0.00	29.963 
04:30	56.3	56.3	56.3	76	48.8	0	1	270	0.00	29.970 
04:35	56.2	56.2	56.2	77	49.1	0	1	270	0.00	29.970 
04:40	56.2	56.2	56.2	77	49.1	0	1	270	0.00	29.970 
04:45	56.0	56.0	56.0	77	48.9	0	1	270	0.00	29.973 
04:50	55.9	55.9	55.9	77	48.8	0	1	270	0.00	29.973 
04:55	55.7	55.7	55.7	78	48.9	0	1	270	0.00	29.973 
05:00	55.6	55.6	55.6	78	48.8	0	1	270	0.00	29.971 
05:05	55.4	55.4	55.4	78	48.7	0	1	270	0.00	29.971 
05:10	55.4	55.4	55.4	79	49.0	0	1	270	0.00	29.971 
05:15	55.4	55.4	55.4	79	49.0	0	1	270	0.00	29.979 
05:20	55.6	55.6	55.6	79	49.2	0	1	270	0.00	29.979 
05:25	55.7	55.7	55.7	79	49.3	0	1	270	0.00	29.979 
05:30	55.9	55.9	55.9	78	49.1	0	2	270	0.00	29.982 
05:35	56.0	56.0	56.0	78	49.2	0	1	270	0.00	29.982 
05:40	56.2	56.2	56.2	77	49.1	0	1	270	0.00	29.982 
05:45	56.2	56.2	56.2	77	49.1	0	2	270	0.00	29.985 
05:50	56.2	56.2	56.2	77	49.1	0	1	270	0.00	29.985 
05:55	56.3	56.3	56.3	77	49.2	0	1	270	0.00	29.985 
06:00	56.3	56.3	56.3	76	48.8	0	1	270	0.00	29.988 
06:05	56.3	56.3	56.3	76	48.8	0	2	270	0.00	29.988 
06:10	56.3	56.3	56.3	76	48.8	0	5	90	0.00	29.988 
06:15	56.3	56.3	56.3	76	48.8	0	1	90	0.00	29.983 
06:20	56.2	56.2	56.2	77	49.1	0	2	90	0.00	29.983 
06:25	56.2	56.2	56.2	77	49.1	0	1	90	0.00	29.983 
06:30	56.0	56.0	56.0	77	48.9	0	1	90	0.00	29.986 
06:35	56.0	56.0	56.0	77	48.9	0	2	90	0.00	29.986 
06:40	56.0	56.0	56.0	77	48.9	0	1	90	0.00	29.986 
06:45	56.0	56.0	56.0	77	48.9	0	2	90	0.00	29.993 
06:50	56.0	56.0	56.0	77	48.9	0	2	90	0.00	29.993 
06:55	56.0	56.0	56.0	77	48.9	0	2	90	0.00	29.993 
07:00	56.0	56.0	56.0	77	48.9	0	2	90	0.00	29.995 
07:05	56.0	56.0	56.0	77	48.9	0	2	90	0.00	29.995 
07:10	56.0	56.0	56.0	77	48.9	0	2	90	0.00	29.995 
07:15	56.2	56.2	56.2	77	49.1	0	2	90	0.00	29.999 
07:20	56.2	56.2	56.2	77	49.1	0	1	90	0.00	29.999 
07:25	56.2	56.2	56.2	77	49.1	0	2	90	0.00	29.999 
07:30	56.2	56.2	56.2	77	49.1	0	3	90	0.00	30.001 
07:35	56.2	56.2	56.2	77	49.1	0	1	90	0.00	30.001 
07:40	56.2	56.2	56.2	77	49.1	0	1	90	0.00	30.001 
07:45	56.2	56.2	56.2	77	49.1	0	1	90	0.00	30.009 
07:50	56.2	56.2	56.2	77	49.1	0	2	90	0.00	30.009 
07:55	56.2	56.2	56.2	77	49.1	0	2	90	0.00	30.009 
08:00	56.2	56.2	56.2	77	49.1	0	2	90	0.00	30.013 
08:05	56.2	56.2	56.2	77	49.1	0	2	90	0.00	30.013 
08:10	56.3	56.3	56.3	76	48.8	1	3	90	0.00	30.013 
08:15	56.3	56.3	56.3	76	48.8	1	3	90	0.00	30.018 
08:20	56.5	56.5	56.5	76	49.0	1	3	248	0.00	30.018 
08:25	56.5	56.5	56.5	75	48.7	1	4	248	0.00	30.018 
08:30	56.6	56.6	56.6	75	48.8	1	3	248	0.00	30.020 
08:35	56.6	56.6	56.6	75	48.8	1	5	270	0.00	30.020 
08:40	56.6	56.6	56.6	75	48.8	0	2	270	0.00	30.020 
08:45	56.7	56.7	56.7	75	48.9	0	2	270	0.00	30.030 
08:50	57.0	57.0	57.0	75	49.2	1	4	270	0.00	30.030 
08:55	57.0	57.0	57.0	74	48.8	2	4	270	0.00	30.030 
09:00	57.2	57.2	57.2	74	49.0	1	3	292	0.00	30.033 
09:05	57.3	57.3	57.3	73	48.7	1	5	292	0.00	30.033 
09:10	57.3	57.3	57.3	72	48.3	1	5	292	0.00	30.033 
09:15	57.6	57.6	57.6	73	49.0	1	4	270	0.00	30.042 
09:20	58.0	58.0	58.0	72	49.0	1	4	270	0.00	30.042 
09:25	58.0	58.0	58.0	69	47.9	2	4	270	0.00	30.042 
09:30	58.0	58.0	58.0	65	46.3	3	6	270	0.00	30.036 
09:35	58.0	58.0	58.0	65	46.3	1	4	292	0.00	30.036 
09:40	58.1	58.1	58.1	63	45.6	2	5	315	0.00	30.036 
09:45	58.0	58.0	58.0	64	45.9	2	4	315	0.00	30.048 
09:50	58.0	58.0	58.0	63	45.5	2	5	315	0.00	30.048 
09:55	58.1	58.1	58.1	63	45.6	2	4	315	0.00	30.048 
10:00	58.3	58.3	58.3	62	45.3	2	4	315	0.00	30.051 
10:05	58.1	58.1	58.1	62	45.1	2	6	315	0.00	30.051 
10:10	57.8	57.8	57.8	60	44.0	3	6	292	0.00	30.051 
10:15	57.6	57.6	57.6	60	43.8	2	5	315	0.00	30.066 
10:20	58.4	58.4	58.4	60	44.6	1	3	315	0.00	30.066 
10:25	59.2	59.2	59.2	58	44.4	2	4	270	0.00	30.066 
10:30	58.6	58.6	58.6	57	43.4	4	7	270	0.00	30.064 
10:35	58.3	58.3	58.3	59	44.0	3	5	270	0.00	30.064 
10:40	58.3	58.3	58.3	58	43.6	2	6	270	0.00	30.064 
10:45	58.7	58.7	58.7	57	43.5	2	7	338	0.00	30.062 
10:50	59.2	59.2	59.2	57	44.0	3	6	270	0.00	30.062 
10:55	59.0	59.0	59.0	57	43.8	3	6	270	0.00	30.062 
11:00	59.8	59.8	59.8	57	44.5	3	7	270	0.00	30.064 
11:05	59.6	59.6	59.6	55	43.4	3	6	270	0.00	30.064 
11:10	59.3	59.3	59.3	56	43.6	2	4	292	0.00	30.064 
11:15	59.6	59.6	59.6	57	44.3	1	5	248	0.00	30.065 
11:20	59.9	59.9	59.9	56	44.2	2	5	270	0.00	30.065 
11:25	60.4	60.4	60.4	54	43.7	3	5	270	0.00	30.065 
11:30	61.0	61.0	61.0	54	44.2	2	5	315	0.00	30.063 
11:35	60.9	60.9	60.9	53	43.7	2	5	292	0.00	30.063 
11:40	61.0	61.0	61.0	54	44.2	2	6	270	0.00	30.063 
11:45	61.3	61.3	61.3	53	44.0	1	5	270	0.00	30.064 
11:50	61.6	61.6	61.6	52	43.8	1	6	292	0.00	30.064 
11:55	61.6	61.6	61.6	53	44.3	2	4	292	0.00	30.064 
12:00	61.2	61.2	61.2	55	44.9	1	4	315	0.00	30.065 
12:05	61.3	61.3	61.3	52	43.5	2	6	270	0.00	30.065 
12:10	61.5	61.5	61.5	54	44.7	1	5	292	0.00	30.065 
12:15	61.2	61.2	61.2	54	44.4	2	7	315	0.00	30.066 
12:20	61.8	61.8	61.8	52	44.0	2	5	270	0.00	30.066 
12:25	62.1	62.1	62.1	52	44.3	1	4	315	0.00	30.066 
12:30	62.1	62.1	62.1	51	43.8	2	6	315	0.00	30.064 
12:35	61.6	61.6	61.6	52	43.8	2	5	315	0.00	30.064 
12:40	62.4	62.4	62.4	52	44.5	2	5	270	0.00	30.064 
12:45	62.6	62.6	62.6	51	44.2	2	5	0	0.00	30.060 
12:50	62.6	62.6	62.6	51	44.2	2	7	315	0.00	30.060 
12:55	61.6	61.6	61.6	52	43.8	2	7	292	0.00	30.060 
13:00	61.8	61.8	61.8	52	44.0	2	6	292	0.00	30.059 
13:05	62.1	62.1	62.1	52	44.3	2	5	315	0.00	30.059 
13:10	62.6	62.6	62.6	50	43.7	4	6	270	0.00	30.059 
13:15	62.6	62.6	62.6	49	43.2	3	6	270	0.00	30.064 
13:20	62.3	62.3	62.3	50	43.4	3	6	315	0.00	30.064 
13:25	62.4	62.4	62.4	50	43.5	2	5	270	0.00	30.064 
13:30	62.1	62.1	62.1	49	42.7	3	9	315	0.00	30.068 
13:35	62.3	62.3	62.3	49	42.9	3	9	315	0.00	30.068 
13:40	62.3	62.3	62.3	48	42.4	2	4	315	0.00	30.068 
13:45	62.7	62.7	62.7	48	42.7	3	6	270	0.00	30.064 
13:50	62.9	62.9	62.9	46	41.8	3	7	270	0.00	30.064 
13:55	62.7	62.7	62.7	47	42.2	3	6	270	0.00	30.064 
14:00	63.1	63.1	63.1	47	42.5	3	7	270	0.00	30.064 
14:05	63.1	63.1	63.1	46	42.0	3	6	270	0.00	30.064 
14:10	63.2	63.2	63.2	47	42.6	3	7	292	0.00	30.064 
14:15	63.4	63.4	63.4	45	41.7	2	7	315	0.00	30.059 
14:20	63.4	63.4	63.4	46	42.3	3	6	292	0.00	30.059 
14:25	63.4	63.4	63.4	46	42.3	2	6	338	0.00	30.059 
14:30	63.5	63.5	63.5	46	42.3	2	5	270	0.00	30.054 
14:35	63.9	63.9	63.9	46	42.7	3	5	270	0.00	30.054 
14:40	64.5	64.5	64.5	45	42.7	3	7	270	0.00	30.054 
14:45	64.2	64.2	64.2	45	42.4	3	6	270	0.00	30.051 
14:50	64.2	64.2	64.2	45	42.4	3	10	270	0.00	30.051 
14:55	64.2	64.2	64.2	46	43.0	2	5	270	0.00	30.051 
15:00	64.2	64.2	64.2	46	43.0	3	7	270	0.00	30.048 
15:05	64.0	64.0	64.0	45	42.2	2	4	270	0.00	30.048 
15:10	64.0	64.0	64.0	45	42.2	1	6	292	0.00	30.048 
15:15	64.0	64.0	64.0	47	43.4	1	4	292	0.00	30.050 
15:20	63.9	63.9	63.9	46	42.7	2	5	0	0.00	30.050 
15:25	63.9	63.9	63.9	46	42.7	0	3	292	0.00	30.050 
15:30	63.9	63.9	63.9	45	42.1	2	7	315	0.00	30.042 
15:35	63.9	63.9	63.9	46	42.7	2	6	315	0.00	30.042 
15:40	64.2	64.2	64.2	46	43.0	2	4	270	0.00	30.042 
15:45	64.2	64.2	64.2	45	42.4	2	6	270	0.00	30.038 
15:50	64.0	64.0	64.0	44	41.6	2	7	270	0.00	30.038 
15:55	63.7	63.7	63.7	45	42.0	1	4	292	0.00	30.038 
16:00	63.5	63.5	63.5	45	41.8	2	5	315	0.00	30.046 
16:05	63.5	63.5	63.5	46	42.3	1	5	315	0.00	30.046 
16:10	63.4	63.4	63.4	46	42.3	0	2	315	0.00	30.046 
16:15	63.1	63.1	63.1	46	42.0	2	5	315	0.00	30.050 
16:20	63.2	63.2	63.2	47	42.6	1	2	315	0.00	30.050 
16:25	63.7	63.7	63.7	47	43.1	0	5	315	0.00	30.050 
16:30	63.7	63.7	63.7	46	42.5	1	4	270	0.00	30.043 
16:35	63.9	63.9	63.9	46	42.7	1	4	270	0.00	30.043 
16:40	63.2	63.2	63.2	47	42.6	1	4	292	0.00	30.043 
16:45	63.1	63.1	63.1	47	42.5	1	3	292	0.00	30.044 
16:50	62.9	62.9	62.9	47	42.4	1	4	315	0.00	30.044 
16:55	62.6	62.6	62.6	49	43.2	0	1	315	0.00	30.044 
17:00	62.1	62.1	62.1	50	43.2	1	3	315	0.00	30.049 
17:05	61.8	61.8	61.8	50	43.0	1	2	338	0.00	30.049 
17:10	61.3	61.3	61.3	51	43.0	0	2	338	0.00	30.049 
17:15	61.0	61.0	61.0	52	43.2	1	3	338	0.00	30.057 
17:20	60.7	60.7	60.7	52	43.0	1	3	315	0.00	30.057 
17:25	61.0	61.0	61.0	52	43.2	1	4	338	0.00	30.057 
17:30	60.7	60.7	60.7	51	42.5	2	5	315	0.00	30.068 
17:35	60.4	60.4	60.4	52	42.7	3	6	315	0.00	30.068 
17:40	60.4	60.4	60.4	52	42.7	1	4	315	0.00	30.068 
17:45	60.5	60.5	60.5	51	42.3	2	5	270	0.00	30.067 
17:50	60.4	60.4	60.4	51	42.2	1	5	292	0.00	30.067 
17:55	60.2	60.2	60.2	52	42.5	1	4	292	0.00	30.067 
18:00	59.9	59.9	59.9	52	42.2	2	4	292	0.00	30.071 
18:05	59.3	59.3	59.3	54	42.7	1	4	292	0.00	30.071 
18:10	59.0	59.0	59.0	54	42.4	1	3	292	0.00	30.071 
18:15	59.3	59.3	59.3	55	43.1	0	3	292	0.00	30.074 
18:20	59.6	59.6	59.6	54	42.9	1	3	315	0.00	30.074 
18:25	59.5	59.5	59.5	54	42.8	1	4	315	0.00	30.074 
18:30	59.0	59.0	59.0	55	42.9	1	3	0	0.00	30.074 
18:35	58.4	58.4	58.4	55	42.3	1	4	315	0.00	30.074 
18:40	57.8	57.8	57.8	57	42.7	1	3	292	0.00	30.074 
18:45	57.3	57.3	57.3	58	42.6	0	3	292	0.00	30.083 
18:50	57.0	57.0	57.0	58	42.4	0	3	292	0.00	30.083 
18:55	56.7	56.7	56.7	59	42.5	0	2	292	0.00	30.083 
19:00	56.5	56.5	56.5	60	42.8	0	2	292	0.00	30.089 
19:05	56.3	56.3	56.3	61	43.0	0	2	292	0.00	30.089 
19:10	56.2	56.2	56.2	62	43.4	0	3	292	0.00	30.089 
19:15	56.2	56.2	56.2	62	43.4	0	3	292	0.00	30.091 
19:20	56.2	56.2	56.2	62	43.4	0	1	292	0.00	30.091 
19:25	56.2	56.2	56.2	62	43.4	0	1	292	0.00	30.091 
19:30	56.0	56.0	56.0	63	43.6	0	3	292	0.00	30.091 
19:35	55.9	55.9	55.9	63	43.5	1	3	292	0.00	30.091 
19:40	55.7	55.7	55.7	63	43.3	0	2	292	0.00	30.091 
19:45	55.4	55.4	55.4	63	43.0	0	4	270	0.00	30.093 
19:50	55.3	55.3	55.3	64	43.3	0	1	315	0.00	30.093 
19:55	55.1	55.1	55.1	64	43.1	0	1	315	0.00	30.093 
20:00	55.1	55.1	55.1	65	43.5	0	0	---	0.00	30.103 
20:05	55.1	55.1	55.1	65	43.5	0	0	---	0.00	30.103 
20:10	55.0	55.0	55.0	65	43.5	0	0	---	0.00	30.103 
20:15	54.8	54.8	54.8	65	43.3	0	1	315	0.00	30.102 
20:20	54.7	54.7	54.7	66	43.6	0	1	315	0.00	30.102 
20:25	54.7	54.7	54.7	66	43.6	0	0	---	0.00	30.102 
20:30	54.7	54.7	54.7	66	43.6	0	1	315	0.00	30.105 
20:35	54.7	54.7	54.7	66	43.6	0	1	315	0.00	30.105 
20:40	54.7	54.7	54.7	66	43.6	0	2	315	0.00	30.105 
20:45	54.7	54.7	54.7	66	43.6	0	1	315	0.00	30.104 
20:50	54.8	54.8	54.8	66	43.7	0	1	315	0.00	30.104 
20:55	54.8	54.8	54.8	65	43.3	0	2	315	0.00	30.104 
21:00	54.8	54.8	54.8	65	43.3	0	2	338	0.00	30.107 
21:05	55.0	55.0	55.0	66	43.9	0	1	338	0.00	30.107 
21:10	55.0	55.0	55.0	66	43.9	0	1	338	0.00	30.107 
21:15	54.8	54.8	54.8	66	43.7	0	1	338	0.00	30.105 
21:20	54.8	54.8	54.8	67	44.1	0	1	338	0.00	30.105 
21:25	54.7	54.7	54.7	67	44.0	0	1	338	0.00	30.105 
21:30	54.7	54.7	54.7	68	44.3	0	1	338	0.00	30.105 
21:35	54.5	54.5	54.5	68	44.2	0	1	338	0.00	30.105 
21:40	54.5	54.5	54.5	68	44.2	0	1	338	0.00	30.105 
21:45	54.5	54.5	54.5	68	44.2	0	1	338	0.00	30.100 
21:50	54.5	54.5	54.5	69	44.5	0	1	338	0.00	30.100 
21:55	54.5	54.5	54.5	69	44.5	0	1	338	0.00	30.100 
22:00	54.5	54.5	54.5	69	44.5	0	0	---	0.00	30.101 
22:05	54.5	54.5	54.5	69	44.5	0	1	338	0.00	30.101 
22:10	54.5	54.5	54.5	69	44.5	0	0	---	0.00	30.101 
22:15	54.5	54.5	54.5	70	44.9	0	1	338	0.00	30.092 
22:20	54.4	54.4	54.4	70	44.8	0	1	338	0.00	30.092 
22:25	54.4	54.4	54.4	70	44.8	0	0	---	0.00	30.092 
22:30	54.4	54.4	54.4	70	44.8	0	0	---	0.00	30.102 
22:35	54.4	54.4	54.4	70	44.8	0	0	---	0.00	30.102 
22:40	54.4	54.4	54.4	71	45.2	0	1	338	0.00	30.102 
22:45	54.4	54.4	54.4	71	45.2	0	1	338	0.00	30.104 
22:50	54.4	54.4	54.4	72	45.6	0	1	338	0.00	30.104 
22:55	54.4	54.4	54.4	72	45.6	0	0	---	0.00	30.104 
23:00	54.2	54.2	54.2	72	45.4	0	1	338	0.00	30.108 
23:05	54.2	54.2	54.2	72	45.4	0	1	338	0.00	30.108 
23:10	54.2	54.2	54.2	72	45.4	0	0	---	0.00	30.108 
23:15	54.1	54.1	54.1	72	45.3	0	1	338	0.00	30.097 
23:20	54.1	54.1	54.1	73	45.6	0	0	---	0.00	30.097 
23:25	53.9	53.9	53.9	73	45.4	0	0	---	0.00	30.097 
23:30	53.9	53.9	53.9	73	45.4	0	0	---	0.00	30.099 
23:35	53.8	53.8	53.8	74	45.7	0	0	---	0.00	30.099 
23:40	53.8	53.8	53.8	74	45.7	0	0	---	0.00	30.099 
23:45	53.6	53.6	53.6	74	45.5	0	0	---	0.00	30.100 
23:50	53.6	53.6	53.6	75	45.9	0	1	338	0.00	30.100 
23:55	53.5	53.5	53.5	75	45.8	0	0	---	0.00	30.100 

CoCoRaHS
IN-AL-39
A2 Web Hosting
Creative Commons License
GoDaddy
search engine by freefind advanced

loaded 2018-11-15 05:54:54 • last modified 2010-11-18 10:43:29
Privacy PolicyDisclaimer
• wx.awcolley.com is powered by PmWiki v.2002016 •
• all content (unless otherwise noted) © 2018 A W Colley